Time;durP1;ratioP1;P1;durP2;ratioP2;P2;SDS_P1;SDS_P2;PMS_P1;PMS_P2;Temp;Humidity;BMP_temperature;BMP_pressure;BME280_temperature;BME280_humidity;BME280_pressure;Samples;Min_cycle;Max_cycle;Signal;HPM_P1;HPM_P2
2023/12/28 00:04:34;;;;;;;4.15;2.42;;;;;;;;;;10340883;28;20038;-75
2023/12/28 00:09:37;;;;;;;3.15;2.10;;;;;;;;;;10356125;28;20567;-75
2023/12/28 00:14:42;;;;;;;4.35;2.00;;;;;;;;;;10353557;28;20156;-75
2023/12/28 00:19:45;;;;;;;3.45;1.75;;;;;;;;;;10346145;28;20042;-75
2023/12/28 00:24:48;;;;;;;2.65;1.90;;;;;;;;;;10357967;28;20112;-75
2023/12/28 00:29:53;;;;;;;4.65;2.10;;;;;;;;;;10358775;28;20053;-75
2023/12/28 00:34:56;;;;;;;3.70;2.10;;;;;;;;;;10353790;28;20046;-75
2023/12/28 00:39:59;;;;;;;3.17;2.22;;;;;;;;;;10353467;28;20073;-74
2023/12/28 00:45:05;;;;;;;3.05;2.25;;;;;;;;;;10350990;28;20053;-75
2023/12/28 00:50:11;;;;;;;4.90;1.90;;;;;;;;;;10337067;28;20144;-75
2023/12/28 00:55:14;;;;;;;2.97;2.05;;;;;;;;;;10362315;28;20506;-75
2023/12/28 01:00:19;;;;;;;2.70;1.95;;;;;;;;;;10352349;28;20045;-75
2023/12/28 01:05:25;;;;;;;2.70;1.80;;;;;;;;;;10340223;28;20037;-75
2023/12/28 01:10:29;;;;;;;2.65;1.95;;;;;;;;;;10359674;28;20103;-75
2023/12/28 01:15:33;;;;;;;2.95;1.80;;;;;;;;;;10352933;28;20125;-75
2023/12/28 01:20:37;;;;;;;2.42;1.55;;;;;;;;;;10341660;28;20042;-75
2023/12/28 01:25:40;;;;;;;2.97;1.77;;;;;;;;;;10350028;28;20042;-74
2023/12/28 01:30:45;;;;;;;3.17;1.88;;;;;;;;;;10340972;28;20058;-75
2023/12/28 01:35:49;;;;;;;5.13;2.63;;;;;;;;;;10351531;28;20050;-74
2023/12/28 01:40:52;;;;;;;5.53;2.50;;;;;;;;;;10344293;28;20057;-75
2023/12/28 01:45:58;;;;;;;5.03;2.67;;;;;;;;;;10347302;28;20048;-75
2023/12/28 01:51:02;;;;;;;5.43;2.83;;;;;;;;;;10365449;28;20048;-75
2023/12/28 01:56:06;;;;;;;3.97;2.72;;;;;;;;;;10344776;28;20041;-75
2023/12/28 02:01:11;;;;;;;4.30;2.60;;;;;;;;;;10343638;28;20046;-74
2023/12/28 02:06:16;;;;;;;2.30;2.05;;;;;;;;;;10349542;28;20123;-75
2023/12/28 02:11:20;;;;;;;5.68;2.85;;;;;;;;;;10360601;28;21192;-74
2023/12/28 02:16:32;;;;;;;3.80;2.28;;;;;;;;;;10360498;28;20096;-74
2023/12/28 02:21:36;;;;;;;3.83;2.22;;;;;;;;;;10357099;28;20085;-74
2023/12/28 02:26:41;;;;;;;3.30;2.22;;;;;;;;;;10368693;28;20042;-74
2023/12/28 02:31:51;;;;;;;3.53;2.10;;;;;;;;;;10364903;28;20048;-75
2023/12/28 02:36:56;;;;;;;2.58;1.60;;;;;;;;;;10363694;28;20056;-74
2023/12/28 02:42:01;;;;;;;2.60;2.10;;;;;;;;;;10364465;28;20136;-74
2023/12/28 02:47:04;;;;;;;2.95;2.00;;;;;;;;;;10361529;28;20049;-75
2023/12/28 02:52:08;;;;;;;2.70;1.65;;;;;;;;;;10360556;28;20495;-75
2023/12/28 02:57:17;;;;;;;2.22;1.80;;;;;;;;;;10344225;28;20042;-75
2023/12/28 03:02:21;;;;;;;2.53;1.92;;;;;;;;;;10362496;28;20136;-75
2023/12/28 03:07:24;;;;;;;3.38;1.98;;;;;;;;;;10357896;28;20383;-75
2023/12/28 03:12:30;;;;;;;2.83;1.92;;;;;;;;;;10361326;28;20439;-75
2023/12/28 03:17:33;;;;;;;2.53;2.13;;;;;;;;;;10382659;23;20510;-73
2023/12/28 03:22:36;;;;;;;3.28;2.17;;;;;;;;;;10368371;28;20434;-73
2023/12/28 03:27:41;;;;;;;2.97;2.58;;;;;;;;;;10354362;28;20410;-73
2023/12/28 03:32:44;;;;;;;2.85;2.10;;;;;;;;;;10341878;28;20034;-73
2023/12/28 03:37:47;;;;;;;3.60;2.33;;;;;;;;;;10347225;28;20050;-73
2023/12/28 03:42:52;;;;;;;4.53;2.40;;;;;;;;;;10345100;28;20562;-73
2023/12/28 03:47:55;;;;;;;2.67;2.03;;;;;;;;;;10345754;28;20078;-73
2023/12/28 03:52:59;;;;;;;4.30;2.42;;;;;;;;;;10336601;28;20043;-73
2023/12/28 03:58:04;;;;;;;3.08;2.30;;;;;;;;;;10334237;28;20205;-73
2023/12/28 04:03:08;;;;;;;3.55;2.20;;;;;;;;;;10339073;28;20786;-73
2023/12/28 04:08:11;;;;;;;4.72;2.25;;;;;;;;;;10334269;28;20120;-73
2023/12/28 04:13:16;;;;;;;3.15;1.80;;;;;;;;;;10334420;28;20042;-73
2023/12/28 04:18:19;;;;;;;2.80;2.00;;;;;;;;;;10336355;28;20089;-73
2023/12/28 04:23:22;;;;;;;2.28;1.50;;;;;;;;;;10340801;28;20125;-73
2023/12/28 04:28:27;;;;;;;2.42;1.50;;;;;;;;;;10333282;28;20122;-73
2023/12/28 04:33:30;;;;;;;2.55;2.10;;;;;;;;;;10335987;28;20117;-73
2023/12/28 04:38:34;;;;;;;2.25;1.30;;;;;;;;;;10336484;28;20098;-73
2023/12/28 04:43:39;;;;;;;2.70;1.67;;;;;;;;;;10345031;28;20124;-74
2023/12/28 04:48:42;;;;;;;5.30;2.00;;;;;;;;;;10337934;28;20043;-73
2023/12/28 04:53:45;;;;;;;3.03;1.48;;;;;;;;;;10324236;28;20043;-73
2023/12/28 04:58:50;;;;;;;2.15;1.40;;;;;;;;;;10332658;28;20132;-74
2023/12/28 05:03:53;;;;;;;1.55;1.10;;;;;;;;;;10338034;28;20044;-73
2023/12/28 05:08:57;;;;;;;1.80;1.33;;;;;;;;;;10332766;28;20042;-74
2023/12/28 05:14:02;;;;;;;2.45;1.13;;;;;;;;;;10327318;28;20556;-74
2023/12/28 05:19:05;;;;;;;2.67;1.35;;;;;;;;;;10330822;28;20077;-73
2023/12/28 05:24:08;;;;;;;1.23;1.10;;;;;;;;;;10335923;28;20053;-73
2023/12/28 05:29:13;;;;;;;1.27;1.10;;;;;;;;;;10334610;28;20161;-73
2023/12/28 05:34:16;;;;;;;0.82;0.75;;;;;;;;;;10321563;28;20044;-73
2023/12/28 05:39:19;;;;;;;1.77;1.27;;;;;;;;;;10330758;28;20590;-73
2023/12/28 05:44:24;;;;;;;1.77;1.10;;;;;;;;;;10338215;28;20438;-73
2023/12/28 05:49:28;;;;;;;1.92;1.15;;;;;;;;;;10333078;28;20046;-73
2023/12/28 05:54:31;;;;;;;2.00;1.15;;;;;;;;;;10326849;28;20166;-73
2023/12/28 05:59:39;;;;;;;1.05;0.88;;;;;;;;;;10328055;28;20052;-73
2023/12/28 06:04:42;;;;;;;2.05;0.93;;;;;;;;;;10323105;28;20121;-73
2023/12/28 06:09:46;;;;;;;2.30;1.10;;;;;;;;;;10330251;28;20077;-73
2023/12/28 06:14:50;;;;;;;1.83;1.30;;;;;;;;;;10337469;28;20061;-74
2023/12/28 06:19:54;;;;;;;1.85;1.20;;;;;;;;;;10326223;28;20050;-73
2023/12/28 06:24:57;;;;;;;1.65;1.10;;;;;;;;;;10339935;28;20137;-73
2023/12/28 06:30:02;;;;;;;2.38;1.10;;;;;;;;;;10333976;28;20034;-74
2023/12/28 06:35:06;;;;;;;1.98;1.20;;;;;;;;;;10330879;28;20054;-73
2023/12/28 06:40:10;;;;;;;2.08;1.10;;;;;;;;;;10333982;28;20493;-73
2023/12/28 06:45:15;;;;;;;1.33;1.02;;;;;;;;;;10331413;28;20052;-73
2023/12/28 06:50:18;;;;;;;1.52;1.33;;;;;;;;;;10326448;28;20191;-73
2023/12/28 06:55:22;;;;;;;1.58;1.23;;;;;;;;;;10330182;28;20037;-73
2023/12/28 07:00:26;;;;;;;1.30;1.10;;;;;;;;;;10319614;28;20380;-74
2023/12/28 07:05:29;;;;;;;2.42;1.27;;;;;;;;;;10336048;28;20129;-73
2023/12/28 07:10:33;;;;;;;2.15;1.60;;;;;;;;;;10328458;28;20105;-73
2023/12/28 07:15:37;;;;;;;3.05;1.38;;;;;;;;;;10337719;28;20050;-73
2023/12/28 07:20:40;;;;;;;2.28;1.23;;;;;;;;;;10330504;28;20042;-73
2023/12/28 07:25:44;;;;;;;1.35;1.20;;;;;;;;;;10320671;28;20062;-73
2023/12/28 07:30:48;;;;;;;2.13;1.42;;;;;;;;;;10334017;28;20514;-74
2023/12/28 07:35:52;;;;;;;2.85;1.33;;;;;;;;;;10326913;28;20122;-73
2023/12/28 07:40:55;;;;;;;2.38;1.45;;;;;;;;;;10326062;28;20579;-73
2023/12/28 07:45:59;;;;;;;1.10;1.00;;;;;;;;;;10326088;28;20054;-73
2023/12/28 07:51:05;;;;;;;1.50;1.08;;;;;;;;;;10319025;28;20043;-73
2023/12/28 07:56:09;;;;;;;2.95;1.05;;;;;;;;;;10325021;28;20487;-73
2023/12/28 08:01:13;;;;;;;3.00;1.20;;;;;;;;;;10319854;28;20407;-73
2023/12/28 08:06:16;;;;;;;1.42;1.20;;;;;;;;;;10311047;28;20111;-73
2023/12/28 08:11:20;;;;;;;1.70;1.08;;;;;;;;;;10323238;28;20070;-73
2023/12/28 08:16:26;;;;;;;3.70;1.20;;;;;;;;;;10322357;28;20061;-73
2023/12/28 08:21:29;;;;;;;1.67;1.10;;;;;;;;;;10330818;28;20054;-73
2023/12/28 08:26:33;;;;;;;1.65;0.90;;;;;;;;;;10335299;28;20038;-73
2023/12/28 08:31:37;;;;;;;3.10;1.15;;;;;;;;;;10327146;28;20049;-73
2023/12/28 08:36:41;;;;;;;1.63;1.20;;;;;;;;;;10335112;28;20047;-73
2023/12/28 08:41:44;;;;;;;2.28;0.98;;;;;;;;;;10315437;28;20046;-73
2023/12/28 08:46:49;;;;;;;4.05;1.45;;;;;;;;;;10299536;28;20046;-73
2023/12/28 08:51:52;;;;;;;3.20;1.25;;;;;;;;;;10304452;28;20069;-73
2023/12/28 08:56:55;;;;;;;1.90;1.08;;;;;;;;;;10310313;28;20078;-73
2023/12/28 09:02:02;;;;;;;2.42;1.00;;;;;;;;;;10305960;28;20563;-73
2023/12/28 09:07:05;;;;;;;2.88;1.10;;;;;;;;;;10302352;28;20037;-73
2023/12/28 09:12:08;;;;;;;3.60;1.33;;;;;;;;;;10310838;28;20097;-73
2023/12/28 09:17:13;;;;;;;4.28;1.23;;;;;;;;;;10334068;23;20058;-75
2023/12/28 09:22:16;;;;;;;2.03;0.88;;;;;;;;;;10337388;28;20057;-75
2023/12/28 09:27:20;;;;;;;1.55;0.93;;;;;;;;;;10347623;28;20054;-74
2023/12/28 09:32:24;;;;;;;1.40;1.20;;;;;;;;;;10346139;28;20050;-75
2023/12/28 09:37:28;;;;;;;2.20;1.23;;;;;;;;;;10346076;28;20045;-74
2023/12/28 09:42:40;;;;;;;2.97;1.40;;;;;;;;;;10354302;28;20038;-75
2023/12/28 09:47:45;;;;;;;2.05;1.35;;;;;;;;;;10348829;28;20049;-74
2023/12/28 09:52:48;;;;;;;1.98;1.27;;;;;;;;;;10340014;28;20097;-74
2023/12/28 09:57:52;;;;;;;3.75;1.58;;;;;;;;;;10341814;28;20046;-74
2023/12/28 10:02:57;;;;;;;1.38;0.75;;;;;;;;;;10347369;28;20403;-74
2023/12/28 10:08:00;;;;;;;6.63;1.30;;;;;;;;;;10351635;28;20411;-74
2023/12/28 10:13:04;;;;;;;1.48;0.82;;;;;;;;;;10350924;28;20171;-74
2023/12/28 10:18:08;;;;;;;3.28;1.10;;;;;;;;;;10350344;28;20553;-74
2023/12/28 10:23:12;;;;;;;2.17;1.30;;;;;;;;;;10353260;28;20132;-75
2023/12/28 10:28:18;;;;;;;2.53;1.10;;;;;;;;;;10351815;28;20434;-74
2023/12/28 10:33:23;;;;;;;2.45;1.15;;;;;;;;;;10346893;28;20038;-74
2023/12/28 10:38:29;;;;;;;2.67;1.20;;;;;;;;;;10341040;28;20108;-74
2023/12/28 10:43:39;;;;;;;2.60;1.15;;;;;;;;;;10359504;28;20041;-75
2023/12/28 10:48:45;;;;;;;1.83;1.10;;;;;;;;;;10350792;28;20506;-74
2023/12/28 10:53:55;;;;;;;2.63;1.25;;;;;;;;;;10358444;28;21712;-75
2023/12/28 10:59:11;;;;;;;3.92;1.17;;;;;;;;;;10348490;28;20400;-74
2023/12/28 11:04:23;;;;;;;2.53;1.45;;;;;;;;;;10345317;28;20049;-75
2023/12/28 11:09:31;;;;;;;4.85;1.13;;;;;;;;;;10340625;28;20038;-75
2023/12/28 11:14:35;;;;;;;2.85;1.33;;;;;;;;;;10342611;28;20476;-75
2023/12/28 11:19:42;;;;;;;3.38;1.05;;;;;;;;;;10343929;28;20042;-74
2023/12/28 11:24:46;;;;;;;2.63;1.02;;;;;;;;;;10350742;28;20383;-75
2023/12/28 11:29:51;;;;;;;3.08;1.02;;;;;;;;;;10341784;28;20586;-75
2023/12/28 11:35:02;;;;;;;2.57;1.20;;;;;;;;;;10346193;28;20049;-74
2023/12/28 11:40:13;;;;;;;3.47;1.35;;;;;;;;;;10351023;28;20052;-75
2023/12/28 11:45:18;;;;;;;3.10;1.08;;;;;;;;;;10352468;28;20404;-75
2023/12/28 11:50:23;;;;;;;4.22;1.65;;;;;;;;;;10344220;28;20080;-75
2023/12/28 11:55:26;;;;;;;1.83;0.90;;;;;;;;;;10353924;28;20247;-75
2023/12/28 12:00:30;;;;;;;2.97;1.17;;;;;;;;;;10350100;28;20250;-75
2023/12/28 12:05:34;;;;;;;2.25;0.93;;;;;;;;;;10362339;28;20573;-75
2023/12/28 12:10:38;;;;;;;2.63;0.95;;;;;;;;;;10354867;28;20113;-75
2023/12/28 12:15:41;;;;;;;4.55;0.88;;;;;;;;;;10361570;28;20550;-75
2023/12/28 12:20:46;;;;;;;6.75;1.45;;;;;;;;;;10354027;28;20511;-75
2023/12/28 12:25:49;;;;;;;4.15;1.05;;;;;;;;;;10346988;28;20145;-75
2023/12/28 12:30:55;;;;;;;3.47;1.10;;;;;;;;;;10349049;28;20046;-75
2023/12/28 12:36:00;;;;;;;;;;;;;;;;;;10355559;28;20395;-75
2023/12/28 12:41:03;;;;;;;6.03;1.52;;;;;;;;;;10360481;28;19931;-74
2023/12/28 12:46:06;;;;;;;4.65;1.27;;;;;;;;;;10340415;28;20054;-75
2023/12/28 12:51:12;;;;;;;4.47;1.50;;;;;;;;;;10350389;28;20487;-75
2023/12/28 12:56:17;;;;;;;2.85;1.30;;;;;;;;;;10347923;28;20589;-75
2023/12/28 13:01:21;;;;;;;5.25;1.60;;;;;;;;;;10347552;28;20042;-75
2023/12/28 13:06:26;;;;;;;5.28;1.38;;;;;;;;;;10345734;28;20047;-75
2023/12/28 13:11:29;;;;;;;3.55;1.08;;;;;;;;;;10341998;28;20046;-75
2023/12/28 13:16:32;;;;;;;3.30;0.98;;;;;;;;;;10351529;28;20037;-73
2023/12/28 13:21:37;;;;;;;1.73;1.02;;;;;;;;;;10339658;28;20048;-75
2023/12/28 13:26:40;;;;;;;3.22;1.27;;;;;;;;;;10349655;28;20038;-74
2023/12/28 13:31:44;;;;;;;3.78;1.50;;;;;;;;;;10342390;28;20034;-74
2023/12/28 13:37:12;;;;;;;4.03;1.35;;;;;;;;;;10339409;28;20089;-75
2023/12/28 13:42:28;;;;;;;1.90;1.10;;;;;;;;;;10347518;28;20050;-75
2023/12/28 13:47:31;;;;;;;2.22;1.20;;;;;;;;;;10338755;28;20034;-74
2023/12/28 13:52:35;;;;;;;2.17;1.33;;;;;;;;;;10349491;28;20033;-75
2023/12/28 13:57:39;;;;;;;3.50;1.25;;;;;;;;;;10355014;28;20062;-75
2023/12/28 14:02:42;;;;;;;3.55;0.90;;;;;;;;;;10349624;28;20042;-74
2023/12/28 14:07:47;;;;;;;1.58;0.93;;;;;;;;;;10358508;28;20049;-74
2023/12/28 14:12:50;;;;;;;5.38;1.48;;;;;;;;;;10358237;28;20126;-74
2023/12/28 14:17:54;;;;;;;2.28;1.15;;;;;;;;;;10353547;28;20655;-74
2023/12/28 14:22:59;;;;;;;3.13;1.05;;;;;;;;;;10361374;28;20419;-74
2023/12/28 14:28:03;;;;;;;2.22;0.90;;;;;;;;;;10363309;28;20053;-74
2023/12/28 14:33:07;;;;;;;1.70;0.60;;;;;;;;;;10348742;28;20478;-74
2023/12/28 14:38:13;;;;;;;2.97;0.65;;;;;;;;;;10367292;28;20060;-74
2023/12/28 14:43:16;;;;;;;2.83;1.13;;;;;;;;;;10362232;28;20045;-74
2023/12/28 14:48:19;;;;;;;1.40;0.80;;;;;;;;;;10359133;28;20099;-74
2023/12/28 14:53:25;;;;;;;2.85;1.10;;;;;;;;;;10354962;28;20474;-74
2023/12/28 14:58:30;;;;;;;1.75;0.90;;;;;;;;;;10356738;28;20062;-74
2023/12/28 15:03:33;;;;;;;2.33;0.90;;;;;;;;;;10347193;28;20818;-74
2023/12/28 15:08:38;;;;;;;2.78;1.05;;;;;;;;;;10354856;28;20073;-74
2023/12/28 15:13:41;;;;;;;1.65;0.80;;;;;;;;;;10359253;28;20052;-74
2023/12/28 15:18:45;;;;;;;1.38;0.85;;;;;;;;;;10376955;23;21241;-75
2023/12/28 15:23:51;;;;;;;1.88;0.70;;;;;;;;;;10399959;28;20046;-74
2023/12/28 15:28:55;;;;;;;3.35;0.93;;;;;;;;;;10396622;28;20041;-75
2023/12/28 15:33:58;;;;;;;1.30;0.75;;;;;;;;;;10397490;28;20127;-75
2023/12/28 15:39:04;;;;;;;1.33;0.73;;;;;;;;;;10394442;28;20053;-75
2023/12/28 15:44:08;;;;;;;2.15;1.00;;;;;;;;;;10398123;28;20046;-75
2023/12/28 15:49:11;;;;;;;1.67;1.00;;;;;;;;;;10389998;28;20073;-75
2023/12/28 15:54:16;;;;;;;2.17;0.88;;;;;;;;;;10397195;28;20111;-75
2023/12/28 15:59:19;;;;;;;3.25;1.30;;;;;;;;;;10398676;28;20477;-75
2023/12/28 16:04:23;;;;;;;1.65;1.08;;;;;;;;;;10397095;28;20073;-75
2023/12/28 16:09:28;;;;;;;1.55;0.82;;;;;;;;;;10402340;28;20045;-75
2023/12/28 16:14:32;;;;;;;4.75;1.30;;;;;;;;;;10394612;28;20037;-74
2023/12/28 16:19:35;;;;;;;2.83;1.45;;;;;;;;;;10398811;28;20067;-75
2023/12/28 16:24:40;;;;;;;1.92;1.00;;;;;;;;;;10400469;28;20037;-75
2023/12/28 16:29:43;;;;;;;1.77;0.90;;;;;;;;;;10398498;28;20052;-75
2023/12/28 16:34:46;;;;;;;2.35;1.08;;;;;;;;;;10394995;28;20041;-75
2023/12/28 16:39:51;;;;;;;1.67;0.88;;;;;;;;;;10399652;28;20084;-75
2023/12/28 16:44:54;;;;;;;2.22;1.17;;;;;;;;;;10396791;28;20136;-75
2023/12/28 16:49:58;;;;;;;2.50;1.30;;;;;;;;;;10398245;28;20490;-75
2023/12/28 16:55:03;;;;;;;1.95;1.10;;;;;;;;;;10395631;28;20041;-75
2023/12/28 17:00:08;;;;;;;1.70;1.10;;;;;;;;;;10400443;28;20056;-75
2023/12/28 17:05:13;;;;;;;2.73;1.50;;;;;;;;;;10395866;28;20879;-75
2023/12/28 17:10:18;;;;;;;2.85;1.33;;;;;;;;;;10399413;28;20136;-75
2023/12/28 17:15:22;;;;;;;2.67;1.30;;;;;;;;;;10396772;28;20187;-75
2023/12/28 17:20:26;;;;;;;4.15;1.90;;;;;;;;;;10396728;28;20456;-75
2023/12/28 17:25:39;;;;;;;5.88;1.95;;;;;;;;;;10374803;28;20101;-75
2023/12/28 17:30:45;;;;;;;3.10;1.80;;;;;;;;;;10396203;28;20038;-75
2023/12/28 17:35:48;;;;;;;2.57;1.17;;;;;;;;;;10381843;28;20721;-75
2023/12/28 17:40:54;;;;;;;2.65;1.20;;;;;;;;;;10384762;28;20050;-75
2023/12/28 17:46:04;;;;;;;2.47;1.30;;;;;;;;;;10388585;28;20045;-75
2023/12/28 17:51:08;;;;;;;3.38;1.35;;;;;;;;;;10393593;28;20049;-75
2023/12/28 17:56:13;;;;;;;2.35;1.30;;;;;;;;;;10388325;28;20120;-75
2023/12/28 18:01:17;;;;;;;1.95;1.60;;;;;;;;;;10385553;28;20049;-75
2023/12/28 18:06:21;;;;;;;2.97;1.63;;;;;;;;;;10385081;28;20050;-75
2023/12/28 18:11:25;;;;;;;2.60;1.40;;;;;;;;;;10370237;28;20140;-75
2023/12/28 18:16:28;;;;;;;2.95;1.15;;;;;;;;;;10386143;28;20049;-75
2023/12/28 18:21:32;;;;;;;4.18;1.48;;;;;;;;;;10379641;28;20548;-75
2023/12/28 18:26:37;;;;;;;3.47;1.63;;;;;;;;;;10388955;28;20044;-75
2023/12/28 18:31:40;;;;;;;3.08;1.13;;;;;;;;;;10388501;28;20045;-74
2023/12/28 18:36:43;;;;;;;3.25;1.52;;;;;;;;;;10389845;28;20046;-75
2023/12/28 18:41:48;;;;;;;3.20;1.65;;;;;;;;;;10385521;28;20071;-75
2023/12/28 18:46:51;;;;;;;4.10;2.10;;;;;;;;;;10392830;28;20050;-75
2023/12/28 18:51:54;;;;;;;4.47;2.00;;;;;;;;;;10385120;28;20677;-75
2023/12/28 18:56:59;;;;;;;2.10;1.42;;;;;;;;;;10396811;28;20041;-74
2023/12/28 19:02:02;;;;;;;2.28;1.30;;;;;;;;;;10392496;28;20444;-75
2023/12/28 19:07:05;;;;;;;3.22;1.30;;;;;;;;;;10400857;28;20064;-74
2023/12/28 19:12:12;;;;;;;1.92;1.60;;;;;;;;;;10404169;28;20140;-75
2023/12/28 19:17:15;;;;;;;3.88;2.20;;;;;;;;;;10393498;28;20051;-75
2023/12/28 19:22:18;;;;;;;2.63;1.48;;;;;;;;;;10395592;28;20661;-75
2023/12/28 19:27:23;;;;;;;2.10;1.30;;;;;;;;;;10403823;28;20045;-75
2023/12/28 19:32:27;;;;;;;3.47;1.40;;;;;;;;;;10402510;28;20045;-75
2023/12/28 19:37:32;;;;;;;3.00;1.30;;;;;;;;;;10404596;28;20045;-75
2023/12/28 19:42:37;;;;;;;2.53;1.45;;;;;;;;;;10402683;28;20049;-75
2023/12/28 19:47:40;;;;;;;2.13;1.38;;;;;;;;;;10384963;28;20051;-74
2023/12/28 19:52:43;;;;;;;3.75;2.13;;;;;;;;;;10398508;28;20532;-75
2023/12/28 19:57:48;;;;;;;2.17;1.50;;;;;;;;;;10397531;28;20037;-75
2023/12/28 20:02:51;;;;;;;2.03;1.23;;;;;;;;;;10401244;28;20121;-75
2023/12/28 20:07:56;;;;;;;2.42;1.10;;;;;;;;;;10393899;28;20042;-74
2023/12/28 20:13:00;;;;;;;1.70;1.10;;;;;;;;;;10396319;28;20522;-75
2023/12/28 20:18:04;;;;;;;1.80;1.00;;;;;;;;;;10390824;28;20128;-75
2023/12/28 20:23:08;;;;;;;1.00;0.80;;;;;;;;;;10399942;28;20095;-75
2023/12/28 20:28:12;;;;;;;4.10;0.80;;;;;;;;;;10382376;28;20128;-75
2023/12/28 20:33:16;;;;;;;1.48;1.00;;;;;;;;;;10394208;28;20034;-75
2023/12/28 20:38:19;;;;;;;1.17;0.80;;;;;;;;;;10400898;28;20653;-75
2023/12/28 20:43:25;;;;;;;1.25;0.90;;;;;;;;;;10399046;28;20044;-75
2023/12/28 20:48:28;;;;;;;1.08;0.98;;;;;;;;;;10400912;28;20051;-75
2023/12/28 20:53:32;;;;;;;1.05;0.82;;;;;;;;;;10399453;28;20681;-75
2023/12/28 20:58:36;;;;;;;2.08;0.77;;;;;;;;;;10388580;28;20038;-75
2023/12/28 21:03:40;;;;;;;1.13;0.70;;;;;;;;;;10385110;28;20525;-75
2023/12/28 21:08:43;;;;;;;1.35;0.90;;;;;;;;;;10367294;28;20414;-75
2023/12/28 21:13:49;;;;;;;1.95;0.70;;;;;;;;;;10380514;28;20138;-75
2023/12/28 21:18:52;;;;;;;;;;;;;;;;;;10382628;23;20510;-74
2023/12/28 21:23:56;;;;;;;1.90;0.73;;;;;;;;;;10349682;28;19928;-74
2023/12/28 21:29:00;;;;;;;1.10;0.50;;;;;;;;;;10363043;28;20072;-74
2023/12/28 21:34:03;;;;;;;0.50;0.50;;;;;;;;;;10399553;28;20498;-74
2023/12/28 21:39:07;;;;;;;1.75;0.60;;;;;;;;;;10396721;28;20124;-74
2023/12/28 21:44:12;;;;;;;0.85;0.63;;;;;;;;;;10400046;28;20037;-74
2023/12/28 21:49:15;;;;;;;3.50;1.88;;;;;;;;;;10376714;28;20034;-74
2023/12/28 21:54:19;;;;;;;1.33;0.98;;;;;;;;;;10391248;28;20037;-74
2023/12/28 21:59:24;;;;;;;0.50;0.50;;;;;;;;;;10390056;28;20526;-74
2023/12/28 22:04:28;;;;;;;1.27;0.60;;;;;;;;;;10375865;28;20053;-74
2023/12/28 22:09:31;;;;;;;0.60;0.50;;;;;;;;;;10393827;28;20121;-74
2023/12/28 22:14:36;;;;;;;1.35;0.50;;;;;;;;;;10397583;28;20095;-74
2023/12/28 22:19:43;;;;;;;0.93;0.80;;;;;;;;;;10399263;28;20049;-74
2023/12/28 22:24:47;;;;;;;2.28;1.00;;;;;;;;;;10396841;28;20033;-74
2023/12/28 22:29:51;;;;;;;0.70;0.70;;;;;;;;;;10396796;28;20059;-74
2023/12/28 22:34:58;;;;;;;1.58;0.80;;;;;;;;;;10403204;28;20506;-74
2023/12/28 22:40:02;;;;;;;1.73;0.75;;;;;;;;;;10405251;28;20058;-74
2023/12/28 22:45:09;;;;;;;0.65;0.65;;;;;;;;;;10399930;28;20099;-74
2023/12/28 22:50:13;;;;;;;1.33;1.00;;;;;;;;;;10397407;28;20049;-74
2023/12/28 22:55:16;;;;;;;1.52;0.98;;;;;;;;;;10381158;28;20495;-74
2023/12/28 23:00:23;;;;;;;1.27;0.82;;;;;;;;;;10401930;28;20055;-74
2023/12/28 23:05:27;;;;;;;1.05;0.95;;;;;;;;;;10398843;28;20136;-74
2023/12/28 23:10:30;;;;;;;1.67;0.88;;;;;;;;;;10380915;28;20045;-74
2023/12/28 23:15:35;;;;;;;1.02;0.80;;;;;;;;;;10401215;28;20693;-74
2023/12/28 23:20:38;;;;;;;1.63;1.02;;;;;;;;;;10403655;28;20585;-74
2023/12/28 23:25:42;;;;;;;1.42;1.20;;;;;;;;;;10402524;28;20123;-74
2023/12/28 23:30:47;;;;;;;1.05;0.88;;;;;;;;;;10397272;28;20136;-74
2023/12/28 23:35:50;;;;;;;1.85;1.38;;;;;;;;;;10394923;28;20056;-74
2023/12/28 23:40:54;;;;;;;1.35;1.20;;;;;;;;;;10379955;28;20116;-74
2023/12/28 23:45:59;;;;;;;1.15;1.02;;;;;;;;;;10402467;28;20038;-74
2023/12/28 23:51:02;;;;;;;2.17;1.38;;;;;;;;;;10402148;28;20051;-74
2023/12/28 23:56:07;;;;;;;2.15;1.45;;;;;;;;;;10398364;28;20055;-74
